Time;durP1;ratioP1;P1;durP2;ratioP2;P2;SDS_P1;SDS_P2;PMS_P1;PMS_P2;Temp;Humidity;BMP_temperature;BMP_pressure;BME280_temperature;BME280_humidity;BME280_pressure;Samples;Min_cycle;Max_cycle;Signal;HPM_P1;HPM_P2
2022/06/20 00:01:18;;;;;;;12.32;2.50;;;15.90;70.60;;;;;;5029345;28;20053;-85
2022/06/20 00:03:48;;;;;;;10.45;2.85;;;15.80;70.60;;;;;;5031978;28;20057;-86
2022/06/20 00:06:20;;;;;;;11.70;2.58;;;15.80;70.50;;;;;;5029247;28;20569;-87
2022/06/20 00:08:50;;;;;;;13.43;2.90;;;15.90;70.50;;;;;;5028682;28;20054;-85
2022/06/20 00:11:44;;;;;;;14.25;2.88;;;15.80;70.50;;;;;;5030449;28;20060;-85
2022/06/20 00:14:20;;;;;;;12.88;2.95;;;15.80;70.50;;;;;;5030554;28;20114;-85
2022/06/20 00:16:47;;;;;;;12.73;3.47;;;15.80;70.50;;;;;;5030207;28;20492;-86
2022/06/20 00:19:15;;;;;;;11.35;2.78;;;15.80;70.40;;;;;;5030953;28;20056;-85
2022/06/20 00:21:42;;;;;;;10.88;2.47;;;15.80;70.50;;;;;;5032015;28;20169;-85
2022/06/20 00:24:09;;;;;;;10.77;2.72;;;15.70;70.50;;;;;;5030167;28;20075;-85
2022/06/20 00:26:37;;;;;;;12.90;3.08;;;15.80;70.50;;;;;;5030176;28;20469;-85
2022/06/20 00:29:06;;;;;;;15.80;2.90;;;15.70;70.60;;;;;;5028669;28;20042;-85
2022/06/20 00:31:34;;;;;;;13.88;2.83;;;15.70;70.60;;;;;;5014468;28;20046;-85
2022/06/20 00:34:02;;;;;;;11.40;2.53;;;15.70;70.60;;;;;;5028212;28;20145;-85
2022/06/20 00:36:29;;;;;;;11.35;2.58;;;15.70;70.60;;;;;;5030461;28;20049;-85
2022/06/20 00:38:56;;;;;;;8.85;2.17;;;15.70;70.70;;;;;;5030134;28;20095;-85
2022/06/20 00:41:28;;;;;;;12.13;3.35;;;15.70;70.70;;;;;;5030145;28;20387;-85
2022/06/20 00:43:55;;;;;;;10.27;2.40;;;15.70;70.70;;;;;;5028585;28;20088;-85
2022/06/20 00:46:26;;;;;;;10.43;2.25;;;15.70;70.80;;;;;;5031355;28;20441;-85
2022/06/20 00:49:13;;;;;;;12.25;2.78;;;15.70;70.80;;;;;;5035175;28;20052;-85
2022/06/20 00:51:56;;;;;;;10.05;2.60;;;15.70;70.80;;;;;;5034293;28;20053;-86
2022/06/20 00:54:32;;;;;;;12.10;3.00;;;15.70;70.80;;;;;;5033916;28;20575;-85
2022/06/20 00:57:19;;;;;;;12.18;3.05;;;15.70;70.90;;;;;;5032442;28;20111;-86
2022/06/20 00:59:56;;;;;;;12.77;2.72;;;15.70;70.90;;;;;;5033311;28;20051;-85
2022/06/20 01:02:31;;;;;;;11.07;2.65;;;15.70;71.00;;;;;;5033808;28;20498;-85
2022/06/20 01:05:10;;;;;;;10.50;2.45;;;15.70;71.00;;;;;;5033785;28;20103;-86
2022/06/20 01:07:57;;;;;;;10.68;2.78;;;15.70;71.00;;;;;;5017127;28;20417;-85
2022/06/20 01:10:27;;;;;;;10.35;2.53;;;15.70;71.10;;;;;;5033677;28;20521;-86
2022/06/20 01:13:06;;;;;;;12.07;2.70;;;15.60;71.10;;;;;;5035445;28;20076;-86
2022/06/20 01:15:42;;;;;;;12.05;3.10;;;15.60;71.20;;;;;;5032339;28;20149;-85
2022/06/20 01:18:23;;;;;;;13.75;2.92;;;15.60;71.20;;;;;;5033401;28;20041;-86
2022/06/20 01:20:53;;;;;;;9.13;2.60;;;15.60;71.30;;;;;;5033350;28;20096;-86
2022/06/20 01:23:44;;;;;;;11.70;2.72;;;15.60;71.30;;;;;;5032179;28;20042;-85
2022/06/20 01:26:30;;;;;;;8.25;2.33;;;15.60;71.40;;;;;;5031726;28;20041;-86
2022/06/20 01:29:01;;;;;;;11.20;2.47;;;15.60;71.40;;;;;;5033049;28;20049;-86
2022/06/20 01:31:33;;;;;;;9.52;2.40;;;15.50;71.50;;;;;;5033427;28;20052;-85
2022/06/20 01:34:01;;;;;;;13.40;2.92;;;15.50;71.50;;;;;;5031057;28;20057;-85
2022/06/20 01:39:19;;;;;;;16.13;3.00;;;15.50;71.70;;;;;;5032976;28;20061;-86
2022/06/20 01:44:38;;;;;;;10.68;2.83;;;15.50;71.80;;;;;;5032657;28;20050;-86
2022/06/20 01:47:05;;;;;;;9.40;2.90;;;15.50;71.90;;;;;;5031503;28;20049;-86
2022/06/20 01:49:34;;;;;;;13.45;2.92;;;15.40;71.90;;;;;;5017215;28;20502;-85
2022/06/20 01:52:12;;;;;;;12.35;2.72;;;15.50;72.00;;;;;;5030647;28;20049;-86
2022/06/20 01:54:48;;;;;;;12.65;2.92;;;15.40;72.00;;;;;;5034065;28;20457;-86
2022/06/20 01:57:17;;;;;;;10.23;2.50;;;15.40;72.10;;;;;;5032741;28;20057;-85
2022/06/20 01:59:56;;;;;;;7.95;2.22;;;15.40;72.10;;;;;;5032392;28;20041;-85
2022/06/20 02:02:23;;;;;;;11.30;2.47;;;15.40;72.20;;;;;;5031176;28;20042;-86
2022/06/20 02:04:51;;;;;;;11.57;2.47;;;15.40;72.20;;;;;;5031145;28;20140;-85
2022/06/20 02:07:18;;;;;;;8.68;2.28;;;15.40;72.30;;;;;;5032766;28;20099;-85
2022/06/20 02:09:46;;;;;;;14.15;2.90;;;15.40;72.30;;;;;;5034368;28;20053;-86
2022/06/20 02:12:16;;;;;;;11.02;2.95;;;15.40;72.30;;;;;;5032123;28;20096;-85
2022/06/20 02:14:51;;;;;;;7.78;2.35;;;15.40;72.30;;;;;;5032312;28;20457;-85
2022/06/20 02:17:23;;;;;;;11.25;2.60;;;15.40;72.40;;;;;;5032354;28;20103;-85
2022/06/20 02:19:54;;;;;;;7.68;2.15;;;15.40;72.40;;;;;;5032442;28;20506;-86
2022/06/20 02:22:23;;;;;;;12.13;2.83;;;15.40;72.50;;;;;;5032391;28;20049;-86
2022/06/20 02:24:54;;;;;;;7.72;2.55;;;15.40;72.50;;;;;;5033959;28;20530;-85
2022/06/20 02:27:36;;;;;;;9.55;2.22;;;15.40;72.50;;;;;;5031599;28;20111;-86
2022/06/20 02:30:05;;;;;;;12.25;2.70;;;15.40;72.50;;;;;;5032020;28;20042;-85
2022/06/20 02:32:37;;;;;;;8.43;2.22;;;15.40;72.60;;;;;;5032075;28;20041;-86
2022/06/20 02:35:08;;;;;;;10.00;2.53;;;15.30;72.60;;;;;;5032180;28;20038;-86
2022/06/20 02:37:35;;;;;;;10.98;2.55;;;15.40;72.60;;;;;;5016564;28;20107;-86
2022/06/20 02:40:07;;;;;;;11.00;2.45;;;15.40;72.60;;;;;;5032656;28;20495;-85
2022/06/20 02:42:40;;;;;;;11.52;2.75;;;15.30;72.70;;;;;;5031011;28;20502;-85
2022/06/20 02:45:11;;;;;;;9.38;2.40;;;15.30;72.70;;;;;;5030321;28;20548;-86
2022/06/20 02:47:45;;;;;;;12.75;2.55;;;15.30;72.80;;;;;;5031758;28;20045;-86
2022/06/20 02:50:16;;;;;;;11.65;2.38;;;15.30;72.80;;;;;;5031715;28;20053;-85
2022/06/20 02:53:09;;;;;;;11.27;2.70;;;15.30;72.80;;;;;;5031832;28;20041;-86
2022/06/20 02:55:37;;;;;;;12.77;3.00;;;15.30;72.80;;;;;;5016056;28;20107;-86
2022/06/20 02:58:22;;;;;;;8.70;2.22;;;15.30;72.80;;;;;;5032979;28;20049;-86
2022/06/20 03:01:04;;;;;;;9.95;2.63;;;15.30;72.90;;;;;;5032079;28;20053;-86
2022/06/20 03:03:32;;;;;;;6.20;2.00;;;15.30;72.90;;;;;;5031813;28;20111;-86
2022/06/20 03:06:03;;;;;;;7.35;2.47;;;15.30;72.90;;;;;;5029732;28;20050;-85
2022/06/20 03:08:31;;;;;;;8.60;2.10;;;15.30;72.90;;;;;;5030982;28;20049;-85
2022/06/20 03:11:04;;;;;;;11.57;2.40;;;15.30;72.90;;;;;;5031123;28;20045;-86
2022/06/20 03:13:34;;;;;;;10.07;2.20;;;15.30;72.90;;;;;;5031315;28;20050;-85
2022/06/20 03:16:02;;;;;;;8.25;2.35;;;15.30;72.90;;;;;;5029107;28;20061;-86
2022/06/20 03:18:31;;;;;;;10.57;2.47;;;15.30;72.90;;;;;;5031530;28;20053;-86
2022/06/20 03:20:59;;;;;;;10.18;2.35;;;15.30;72.90;;;;;;5029600;28;20053;-86
2022/06/20 03:23:32;;;;;;;8.50;2.05;;;15.30;72.90;;;;;;5029721;28;20113;-86
2022/06/20 03:26:01;;;;;;;11.77;2.92;;;15.30;72.90;;;;;;5030563;28;20050;-85
2022/06/20 03:28:30;;;;;;;8.68;2.25;;;15.30;72.90;;;;;;5031100;28;20041;-86
2022/06/20 03:31:03;;;;;;;8.65;2.38;;;15.30;72.90;;;;;;5029148;28;20140;-86
2022/06/20 03:33:30;;;;;;;9.93;2.33;;;15.30;72.90;;;;;;5031206;28;20132;-86
2022/06/20 03:36:19;;;;;;;8.75;2.08;;;15.30;72.90;;;;;;5030949;28;20505;-85
2022/06/20 03:38:47;;;;;;;12.85;2.35;;;15.30;72.90;;;;;;5030795;28;20461;-86
2022/06/20 03:41:17;;;;;;;10.77;2.67;;;15.20;72.80;;;;;;5030582;28;20047;-85
2022/06/20 03:43:50;;;;;;;11.57;2.60;;;15.30;72.80;;;;;;5029362;28;20045;-85
2022/06/20 03:46:24;;;;;;;11.68;2.88;;;15.20;72.80;;;;;;5031075;28;20057;-85
2022/06/20 03:49:21;;;;;;;7.80;2.40;;;15.30;72.80;;;;;;5031592;28;20056;-85
2022/06/20 03:52:01;;;;;;;6.10;2.42;;;15.30;72.90;;;;;;5030325;28;20076;-86
2022/06/20 03:54:47;;;;;;;8.25;2.55;;;15.20;72.80;;;;;;5030351;28;20049;-86
2022/06/20 03:57:28;;;;;;;9.27;2.50;;;15.30;72.90;;;;;;5030554;28;20107;-86
2022/06/20 04:00:08;;;;;;;8.68;2.83;;;15.20;72.90;;;;;;5029426;28;20041;-86
2022/06/20 04:02:59;;;;;;;9.48;2.70;;;15.20;72.80;;;;;;5029056;28;20560;-85
2022/06/20 04:05:36;;;;;;;11.18;2.65;;;15.20;72.90;;;;;;5030547;28;20639;-85
2022/06/20 04:08:09;;;;;;;11.57;2.78;;;15.20;72.80;;;;;;5030005;28;20117;-86
2022/06/20 04:13:51;;;;;;;10.52;3.13;;;15.20;72.80;;;;;;5030575;28;20587;-85
2022/06/20 04:16:36;;;;;;;11.30;2.38;;;15.20;72.80;;;;;;5028714;28;20105;-85
2022/06/20 04:19:18;;;;;;;11.50;2.67;;;15.20;72.80;;;;;;5028459;28;20049;-84
2022/06/20 04:22:00;;;;;;;8.88;2.75;;;15.20;72.90;;;;;;5032530;28;20049;-85
2022/06/20 04:25:24;;;;;;;6.00;2.35;;;15.20;72.90;;;;;;5032546;28;20053;-85
2022/06/20 04:27:57;;;;;;;10.88;2.78;;;15.20;72.90;;;;;;5013121;28;20058;-85
2022/06/20 04:30:29;;;;;;;12.25;3.08;;;15.20;72.90;;;;;;5010901;28;20469;-85
2022/06/20 04:33:17;;;;;;;12.18;2.75;;;15.20;72.90;;;;;;5012538;28;20054;-85
2022/06/20 04:36:06;;;;;;;12.70;3.00;;;15.20;72.90;;;;;;5010760;28;20085;-86
2022/06/20 04:38:40;;;;;;;11.32;3.15;;;15.20;72.90;;;;;;5010034;28;20045;-85
2022/06/20 04:41:18;;;;;;;10.50;2.85;;;15.20;73.00;;;;;;5012126;28;20104;-84
2022/06/20 04:43:55;;;;;;;12.63;2.70;;;15.20;73.00;;;;;;5010733;28;20050;-85
2022/06/20 04:46:33;;;;;;;8.68;2.70;;;15.20;73.00;;;;;;5012207;28;20088;-85
2022/06/20 04:49:00;;;;;;;8.18;2.75;;;15.20;73.00;;;;;;5009804;28;20049;-85
2022/06/20 04:51:33;;;;;;;9.52;2.47;;;15.20;73.00;;;;;;5011699;28;20166;-86
2022/06/20 04:54:03;;;;;;;13.90;2.90;;;15.20;72.90;;;;;;5010371;28;20045;-85
2022/06/20 04:56:31;;;;;;;11.60;2.85;;;15.20;73.00;;;;;;5012112;28;20046;-85
2022/06/20 04:59:06;;;;;;;8.48;2.60;;;15.20;73.00;;;;;;5025524;28;20479;-85
2022/06/20 05:01:35;;;;;;;6.70;2.40;;;15.20;73.00;;;;;;5018227;28;20466;-85
2022/06/20 05:04:11;;;;;;;10.40;2.42;;;15.20;73.00;;;;;;5031582;28;20045;-86
2022/06/20 05:06:40;;;;;;;9.98;2.65;;;15.20;73.00;;;;;;5034386;28;20049;-85
2022/06/20 05:09:30;;;;;;;12.73;3.08;;;15.20;73.00;;;;;;5033513;28;20049;-85
2022/06/20 05:12:09;;;;;;;12.57;3.10;;;15.20;73.00;;;;;;5033689;28;20049;-85
2022/06/20 05:15:01;;;;;;;9.25;2.70;;;15.20;73.10;;;;;;5033457;28;20084;-85
2022/06/20 05:17:31;;;;;;;11.10;2.50;;;15.20;73.00;;;;;;5031933;28;20045;-84
2022/06/20 05:20:06;;;;;;;8.23;2.50;;;15.30;73.00;;;;;;5032088;28;20068;-85
2022/06/20 05:22:40;;;;;;;8.73;2.60;;;15.30;73.00;;;;;;5017404;28;20045;-84
2022/06/20 05:25:14;;;;;;;8.27;2.53;;;15.30;73.00;;;;;;5031309;28;20053;-85
2022/06/20 05:27:49;;;;;;;12.50;3.00;;;15.30;73.00;;;;;;5034672;28;20053;-85
2022/06/20 05:30:20;;;;;;;10.90;2.70;;;15.30;73.00;;;;;;5033299;28;20564;-85
2022/06/20 05:33:43;;;;;;;7.72;2.20;;;15.30;73.00;;;;;;5032756;28;20053;-85
2022/06/20 05:36:14;;;;;;;10.60;2.33;;;15.30;73.00;;;;;;4997919;28;20498;-85
2022/06/20 05:39:13;;;;;;;10.65;2.38;;;15.30;73.00;;;;;;4995447;28;20050;-84
2022/06/20 05:41:40;;;;;;;9.30;2.58;;;15.30;72.90;;;;;;4999769;28;20054;-85
2022/06/20 05:44:14;;;;;;;9.25;2.33;;;15.30;73.00;;;;;;5007475;28;20548;-85
2022/06/20 05:46:45;;;;;;;7.88;2.45;;;15.30;72.90;;;;;;5013692;28;20050;-85
2022/06/20 05:49:21;;;;;;;8.82;2.05;;;15.30;72.90;;;;;;5010882;28;20429;-85
2022/06/20 05:51:49;;;;;;;9.80;2.53;;;15.30;72.90;;;;;;5010469;28;20054;-84
2022/06/20 05:54:28;;;;;;;6.93;2.15;;;15.30;72.80;;;;;;5010513;28;20049;-84
2022/06/20 05:57:14;;;;;;;11.38;2.50;;;15.30;72.80;;;;;;5010770;28;20057;-84
2022/06/20 05:59:49;;;;;;;8.98;2.38;;;15.30;72.70;;;;;;5010442;28;20502;-84
2022/06/20 06:02:40;;;;;;;11.68;2.22;;;15.40;72.60;;;;;;4994430;28;20050;-85
2022/06/20 06:05:26;;;;;;;10.57;2.05;;;15.40;72.60;;;;;;5010040;28;20056;-85
2022/06/20 06:08:04;;;;;;;6.88;1.80;;;15.40;72.50;;;;;;5010526;28;20474;-85
2022/06/20 06:10:43;;;;;;;7.63;2.20;;;15.40;72.40;;;;;;5014849;28;20050;-86
2022/06/20 06:13:13;;;;;;;11.27;2.20;;;15.40;72.40;;;;;;5029384;28;20045;-88
2022/06/20 06:15:41;;;;;;;7.80;2.22;;;15.40;72.30;;;;;;5028539;28;20053;-86
2022/06/20 06:18:14;;;;;;;7.10;1.83;;;15.40;72.20;;;;;;5026249;28;20045;-84
2022/06/20 06:20:45;;;;;;;9.70;2.13;;;15.40;72.10;;;;;;5028865;28;20049;-86
2022/06/20 06:23:14;;;;;;;6.90;1.80;;;15.40;72.00;;;;;;5029197;28;20041;-84
2022/06/20 06:25:43;;;;;;;6.97;1.80;;;15.40;71.90;;;;;;5030345;28;20041;-85
2022/06/20 06:28:18;;;;;;;9.57;2.20;;;15.40;71.80;;;;;;5031418;28;20548;-85
2022/06/20 06:30:54;;;;;;;9.48;2.40;;;15.40;71.70;;;;;;5031496;28;20099;-87
2022/06/20 06:33:42;;;;;;;7.80;1.73;;;15.50;71.70;;;;;;5028424;28;20050;-85
2022/06/20 06:36:21;;;;;;;6.75;1.80;;;15.50;71.50;;;;;;5028801;28;20056;-84
2022/06/20 06:39:04;;;;;;;7.93;2.33;;;15.50;71.50;;;;;;5027816;28;20068;-86
2022/06/20 06:41:37;;;;;;;12.33;3.03;;;15.50;71.50;;;;;;5028746;28;20418;-85
2022/06/20 06:44:19;;;;;;;11.10;2.35;;;15.50;71.40;;;;;;5028053;28;20100;-85
2022/06/20 06:46:51;;;;;;;7.63;2.20;;;15.50;71.40;;;;;;5014914;28;20046;-86
2022/06/20 06:49:41;;;;;;;9.45;2.13;;;15.50;71.40;;;;;;5030882;28;20103;-87
2022/06/20 06:52:17;;;;;;;7.38;2.10;;;15.50;71.30;;;;;;5031650;28;20107;-85
2022/06/20 06:54:53;;;;;;;14.30;2.55;;;15.50;71.30;;;;;;5026332;28;20053;-85
2022/06/20 06:57:26;;;;;;;8.77;2.22;;;15.50;71.30;;;;;;5027074;28;20457;-85
2022/06/20 07:00:30;;;;;;;7.95;2.28;;;15.60;71.20;;;;;;5030212;28;20057;-87
2022/06/20 07:03:03;;;;;;;11.15;2.47;;;15.60;71.30;;;;;;5021044;28;20469;-87
2022/06/20 07:06:01;;;;;;;8.77;2.83;;;15.60;71.30;;;;;;5020024;28;20052;-85
2022/06/20 07:08:58;;;;;;;12.38;2.85;;;15.60;71.30;;;;;;5028316;28;20103;-85
2022/06/20 07:11:26;;;;;;;11.32;2.97;;;15.60;71.20;;;;;;5028089;28;20563;-85
2022/06/20 07:14:22;;;;;;;10.68;2.97;;;15.60;71.20;;;;;;5028591;28;20084;-86
2022/06/20 07:17:14;;;;;;;10.43;2.42;;;15.50;71.20;;;;;;5015282;28;20049;-86
2022/06/20 07:19:48;;;;;;;9.05;2.30;;;15.60;71.30;;;;;;5013535;28;20060;-87
2022/06/20 07:22:18;;;;;;;10.70;2.90;;;15.60;71.30;;;;;;5029148;28;20049;-85
2022/06/20 07:24:46;;;;;;;10.85;2.72;;;15.60;71.30;;;;;;5030418;28;20053;-85
2022/06/20 07:27:23;;;;;;;7.75;2.80;;;15.60;71.30;;;;;;5027761;28;20057;-85
2022/06/20 07:29:55;;;;;;;8.13;2.70;;;15.60;71.30;;;;;;5027888;28;20038;-85
2022/06/20 07:32:33;;;;;;;14.77;2.80;;;15.60;71.30;;;;;;5027378;28;20595;-85
2022/06/20 07:35:23;;;;;;;12.25;2.90;;;15.60;71.30;;;;;;5027833;28;20044;-85
2022/06/20 07:38:00;;;;;;;12.35;3.28;;;15.60;71.40;;;;;;5014716;28;20096;-86
2022/06/20 07:40:36;;;;;;;8.57;2.55;;;15.70;71.40;;;;;;5028999;28;20056;-85
2022/06/20 07:43:19;;;;;;;7.90;2.83;;;15.70;71.50;;;;;;5028441;28;20522;-86
2022/06/20 07:45:49;;;;;;;8.88;3.03;;;15.70;71.50;;;;;;5029845;28;20041;-85
2022/06/20 07:48:30;;;;;;;7.38;2.70;;;15.80;71.50;;;;;;5027458;28;20100;-85
2022/06/20 07:51:08;;;;;;;10.30;2.42;;;15.80;71.60;;;;;;5027667;28;20053;-86
2022/06/20 07:53:47;;;;;;;7.95;2.53;;;15.80;71.50;;;;;;5027472;28;20045;-85
2022/06/20 07:56:29;;;;;;;12.40;3.42;;;15.80;71.50;;;;;;5027232;28;20107;-84
2022/06/20 07:59:27;;;;;;;7.78;2.70;;;15.90;71.50;;;;;;5027496;28;20402;-85
2022/06/20 08:02:07;;;;;;;7.38;2.47;;;15.90;71.50;;;;;;5028162;28;20131;-84
2022/06/20 08:04:35;;;;;;;8.70;2.67;;;15.90;71.50;;;;;;5028403;28;20164;-86
2022/06/20 08:07:05;;;;;;;9.23;2.78;;;15.90;71.50;;;;;;5025661;28;20059;-85
2022/06/20 08:09:57;;;;;;;9.93;2.97;;;16.00;71.40;;;;;;5028437;28;20045;-86
2022/06/20 08:12:56;;;;;;;10.93;3.20;;;16.00;71.30;;;;;;4968531;28;20578;-87
2022/06/20 08:15:26;;;;;;;11.02;3.20;;;16.10;71.20;;;;;;4951641;28;20051;-85
2022/06/20 08:17:53;;;;;;;12.05;3.30;;;16.10;71.10;;;;;;4969466;28;20054;-86
2022/06/20 08:20:24;;;;;;;9.40;2.72;;;16.10;71.00;;;;;;4969423;28;20125;-86
2022/06/20 08:23:14;;;;;;;8.32;3.08;;;16.10;70.90;;;;;;4969211;28;20055;-86
2022/06/20 08:25:48;;;;;;;7.28;2.78;;;16.20;70.90;;;;;;4969212;28;20101;-86
2022/06/20 08:28:21;;;;;;;7.95;2.65;;;16.20;70.80;;;;;;4969312;28;20061;-87
2022/06/20 08:31:12;;;;;;;8.48;2.90;;;16.20;70.70;;;;;;4968941;28;20058;-86
2022/06/20 08:34:08;;;;;;;9.25;2.55;;;16.30;70.60;;;;;;4969933;28;20059;-86
2022/06/20 08:36:41;;;;;;;;;;;16.30;70.50;;;;;;4969777;28;20051;-86
2022/06/20 08:39:19;;;;;;;7.57;2.53;;;16.40;70.40;;;;;;4967329;28;19922;-85
2022/06/20 08:41:49;;;;;;;8.25;2.20;;;16.40;70.30;;;;;;4969221;28;20043;-85
2022/06/20 08:44:56;;;;;;;6.07;2.47;;;16.40;70.20;;;;;;4968576;28;20076;-87
2022/06/20 08:47:29;;;;;;;8.23;2.70;;;16.50;70.10;;;;;;4968138;28;20050;-86
2022/06/20 08:50:28;;;;;;;9.07;2.80;;;16.60;69.90;;;;;;5005563;28;20434;-85
2022/06/20 08:53:31;;;;;;;10.73;2.50;;;16.70;69.80;;;;;;5016501;28;20049;-86
2022/06/20 08:56:33;;;;;;;8.68;2.83;;;16.70;69.70;;;;;;5027090;28;20099;-86
2022/06/20 08:59:09;;;;;;;7.18;2.55;;;16.80;69.50;;;;;;5026899;28;20104;-86
2022/06/20 09:01:48;;;;;;;9.23;2.70;;;16.90;69.40;;;;;;5011833;28;20045;-86
2022/06/20 09:04:30;;;;;;;6.60;2.33;;;16.90;69.20;;;;;;5028021;28;20502;-87
2022/06/20 09:07:44;;;;;;;9.45;2.60;;;17.00;69.00;;;;;;5031595;28;20049;-87
2022/06/20 09:10:22;;;;;;;38.80;3.45;;;17.10;68.80;;;;;;5031372;28;20048;-86
2022/06/20 09:12:52;;;;;;;6.38;2.15;;;17.20;68.60;;;;;;5032365;28;20049;-86
2022/06/20 09:15:57;;;;;;;9.65;2.60;;;17.30;68.50;;;;;;5026680;28;20086;-85
2022/06/20 09:18:54;;;;;;;7.82;2.15;;;17.30;68.30;;;;;;5011297;28;20088;-86
2022/06/20 09:21:31;;;;;;;5.47;2.42;;;17.40;68.10;;;;;;5011073;28;20526;-88
2022/06/20 09:24:25;;;;;;;8.18;2.35;;;17.40;68.00;;;;;;5011554;28;20058;-85
2022/06/20 09:27:07;;;;;;;9.45;2.60;;;17.50;67.80;;;;;;5011027;28;20054;-84
2022/06/20 09:29:39;;;;;;;6.07;2.35;;;17.60;67.70;;;;;;4994731;28;20553;-84
2022/06/20 09:32:06;;;;;;;9.65;2.17;;;17.60;67.50;;;;;;5011152;28;20100;-87
2022/06/20 09:34:55;;;;;;;8.43;3.20;;;17.70;67.40;;;;;;5011293;28;20038;-84
2022/06/20 09:37:55;;;;;;;11.13;2.70;;;17.90;67.10;;;;;;5011013;28;20096;-85
2022/06/20 09:40:55;;;;;;;8.70;2.35;;;17.90;66.80;;;;;;5005213;28;20054;-84
2022/06/20 09:43:36;;;;;;;7.95;2.30;;;18.00;66.50;;;;;;4989717;28;20538;-85
2022/06/20 09:46:39;;;;;;;9.55;2.80;;;18.10;66.20;;;;;;4988545;28;20085;-84
2022/06/20 09:49:26;;;;;;;9.27;2.10;;;18.20;66.00;;;;;;5006739;28;20114;-87
2022/06/20 09:52:16;;;;;;;9.25;2.30;;;18.30;65.70;;;;;;5033454;28;20053;-84
2022/06/20 09:54:55;;;;;;;10.65;2.22;;;18.40;65.50;;;;;;5032064;28;20064;-86
2022/06/20 09:57:47;;;;;;;6.78;2.08;;;18.40;65.10;;;;;;5029147;28;20403;-84
2022/06/20 10:00:24;;;;;;;7.78;2.38;;;18.50;64.90;;;;;;5028435;28;20191;-84
2022/06/20 10:03:09;;;;;;;6.97;2.28;;;18.60;64.70;;;;;;5029959;28;20045;-86
2022/06/20 10:06:06;;;;;;;6.75;2.00;;;18.70;64.50;;;;;;5029444;28;20045;-86
2022/06/20 10:08:57;;;;;;;11.38;2.67;;;18.80;64.20;;;;;;5029415;28;20107;-85
2022/06/20 10:11:39;;;;;;;7.80;2.50;;;18.90;64.00;;;;;;5027608;28;20041;-85
2022/06/20 10:14:44;;;;;;;7.68;2.13;;;19.00;63.80;;;;;;5029382;28;20655;-85
2022/06/20 10:17:13;;;;;;;6.78;1.90;;;19.10;63.60;;;;;;5029503;28;20468;-85
2022/06/20 10:19:56;;;;;;;7.35;2.20;;;19.30;63.30;;;;;;5028047;28;20046;-84
2022/06/20 10:22:48;;;;;;;8.30;2.15;;;19.30;63.10;;;;;;5030642;28;20716;-84
2022/06/20 10:25:51;;;;;;;5.55;2.10;;;19.40;62.90;;;;;;5027963;28;20049;-85
2022/06/20 10:28:23;;;;;;;5.13;1.80;;;19.50;62.60;;;;;;5031126;28;20057;-84
2022/06/20 10:31:23;;;;;;;6.65;1.65;;;19.50;62.50;;;;;;5032271;28;20383;-86
2022/06/20 10:34:13;;;;;;;7.28;2.00;;;19.60;62.20;;;;;;5029862;28;20050;-84
2022/06/20 10:36:55;;;;;;;7.43;1.90;;;19.70;61.90;;;;;;5030836;28;20159;-85
2022/06/20 10:39:57;;;;;;;6.88;1.95;;;19.80;61.70;;;;;;5029327;28;20045;-85
2022/06/20 10:42:58;;;;;;;7.53;2.40;;;19.80;61.50;;;;;;5010399;28;20546;-85
2022/06/20 10:45:39;;;;;;;7.07;2.00;;;19.90;61.20;;;;;;5029362;28;20099;-84
2022/06/20 10:48:11;;;;;;;8.73;2.08;;;20.00;61.00;;;;;;5029321;28;20053;-85
2022/06/20 10:50:38;;;;;;;7.15;2.10;;;19.90;60.80;;;;;;5026762;28;20041;-84
2022/06/20 10:53:09;;;;;;;6.55;2.10;;;20.00;60.70;;;;;;5030040;28;20049;-85
2022/06/20 10:55:50;;;;;;;8.00;2.03;;;20.10;60.60;;;;;;5028778;28;20514;-85
2022/06/20 10:58:23;;;;;;;6.90;2.05;;;20.10;60.50;;;;;;5029515;28;20049;-84
2022/06/20 11:01:02;;;;;;;5.43;1.83;;;20.10;60.40;;;;;;5013145;28;20046;-85
2022/06/20 11:03:44;;;;;;;6.22;1.92;;;20.20;60.30;;;;;;5029637;28;20045;-84
2022/06/20 11:06:20;;;;;;;8.77;1.90;;;20.30;60.30;;;;;;5028863;28;20147;-84
2022/06/20 11:09:01;;;;;;;6.63;2.05;;;20.30;60.10;;;;;;5026775;28;20045;-86
2022/06/20 11:12:05;;;;;;;6.95;1.63;;;20.40;59.90;;;;;;5028234;28;20046;-85
2022/06/20 11:14:52;;;;;;;7.00;2.22;;;20.40;59.70;;;;;;5030214;28;20050;-86
2022/06/20 11:17:36;;;;;;;6.00;2.00;;;20.40;59.50;;;;;;5028268;28;20045;-85
2022/06/20 11:20:06;;;;;;;;;;;20.40;59.40;;;;;;5028949;28;20107;-85
2022/06/20 11:22:41;;;;;;;6.53;1.95;;;20.50;59.30;;;;;;5012842;28;19924;-85
2022/06/20 11:25:11;;;;;;;7.53;2.05;;;20.60;59.20;;;;;;5026303;28;20056;-84
2022/06/20 11:28:07;;;;;;;6.72;2.00;;;20.60;59.00;;;;;;5031102;28;20115;-84
2022/06/20 11:30:54;;;;;;;8.80;1.88;;;20.60;58.90;;;;;;5029481;28;20095;-86
2022/06/20 11:34:06;;;;;;;6.32;1.88;;;20.70;58.60;;;;;;5026349;28;20115;-85
2022/06/20 11:37:07;;;;;;;7.20;1.88;;;20.70;58.50;;;;;;5012684;28;20052;-87
2022/06/20 11:40:11;;;;;;;10.40;2.28;;;20.80;58.10;;;;;;5029432;28;20568;-86
2022/06/20 11:42:59;;;;;;;5.85;2.22;;;20.80;57.70;;;;;;5030090;28;20481;-85
2022/06/20 11:45:44;;;;;;;5.25;1.52;;;20.90;57.50;;;;;;5028853;28;20050;-85
2022/06/20 11:48:41;;;;;;;5.78;1.88;;;20.90;57.40;;;;;;5028700;28;20057;-87
2022/06/20 11:51:30;;;;;;;6.50;1.92;;;20.90;57.30;;;;;;5028819;28;20088;-86
2022/06/20 11:54:17;;;;;;;5.97;2.25;;;20.90;57.20;;;;;;5028443;28;20103;-85
2022/06/20 11:56:54;;;;;;;11.88;2.15;;;20.90;57.00;;;;;;5025178;28;20045;-85
2022/06/20 12:00:01;;;;;;;9.88;2.17;;;20.90;56.90;;;;;;5028276;28;20049;-86
2022/06/20 12:02:39;;;;;;;8.10;2.42;;;21.00;56.60;;;;;;5027959;28;20052;-84
2022/06/20 12:05:18;;;;;;;7.47;1.80;;;21.00;56.40;;;;;;5028259;28;20052;-84
2022/06/20 12:07:56;;;;;;;5.88;1.65;;;21.00;56.40;;;;;;5018666;28;20053;-85
2022/06/20 12:10:37;;;;;;;9.32;1.90;;;21.10;56.40;;;;;;5029066;28;24427;-84
2022/06/20 12:13:42;;;;;;;5.85;1.83;;;21.10;56.40;;;;;;5027292;28;20053;-84
2022/06/20 12:16:09;;;;;;;;;;;21.10;56.30;;;;;;5030630;28;20103;-84
2022/06/20 12:23:18;;;;;;;6.65;1.83;;;21.10;56.20;;;;;;5028510;28;19975;-85
2022/06/20 12:24:21;;;;;;;7.57;2.35;;;21.20;56.20;;;;;;5027531;28;20053;-84
2022/06/20 12:26:49;;;;;;;5.75;2.08;;;21.20;56.10;;;;;;5027257;28;20053;-84
2022/06/20 12:29:19;;;;;;;4.30;1.70;;;21.30;56.10;;;;;;5027702;28;20041;-84
2022/06/20 12:31:51;;;;;;;5.10;2.10;;;21.40;56.00;;;;;;5027772;28;20048;-86
2022/06/20 12:34:37;;;;;;;9.65;2.20;;;21.40;55.90;;;;;;5030008;28;20088;-85
2022/06/20 12:37:28;;;;;;;6.00;2.03;;;21.40;55.80;;;;;;5033847;28;20053;-84
2022/06/20 12:40:12;;;;;;;5.25;1.75;;;21.50;55.60;;;;;;5031360;28;20107;-85
2022/06/20 12:42:39;;;;;;;4.88;1.80;;;21.60;55.50;;;;;;5033062;28;20049;-85
2022/06/20 12:45:43;;;;;;;6.05;2.08;;;21.60;55.40;;;;;;5031453;28;20057;-84
2022/06/20 12:48:28;;;;;;;4.28;1.60;;;21.70;55.30;;;;;;5031138;28;20053;-84
2022/06/20 12:51:30;;;;;;;5.38;1.92;;;21.80;55.30;;;;;;5031382;28;20049;-85
2022/06/20 12:54:25;;;;;;;11.13;2.08;;;21.80;55.20;;;;;;5031740;28;20116;-85
2022/06/20 12:57:05;;;;;;;8.07;2.15;;;21.90;54.90;;;;;;5031006;28;20042;-84
2022/06/20 13:00:09;;;;;;;8.77;1.85;;;22.00;54.70;;;;;;5031275;28;20046;-85
2022/06/20 13:02:48;;;;;;;7.75;2.20;;;22.00;54.60;;;;;;5034434;28;20398;-84
2022/06/20 13:05:29;;;;;;;7.93;1.90;;;22.10;54.50;;;;;;5031094;28;20052;-84
2022/06/20 13:08:15;;;;;;;11.73;2.30;;;22.20;54.30;;;;;;5030330;28;20081;-84
2022/06/20 13:10:51;;;;;;;6.32;2.03;;;22.30;54.20;;;;;;5031223;28;20050;-87
2022/06/20 13:13:36;;;;;;;6.43;1.80;;;22.30;54.10;;;;;;5032796;28;20042;-84
2022/06/20 13:16:05;;;;;;;6.63;1.85;;;22.40;54.00;;;;;;5034857;28;20052;-85
2022/06/20 13:19:03;;;;;;;7.63;1.95;;;22.40;53.90;;;;;;5030688;28;20418;-85
2022/06/20 13:21:43;;;;;;;9.25;1.98;;;22.50;53.70;;;;;;5030038;28;20053;-84
2022/06/20 13:24:28;;;;;;;7.65;2.05;;;22.50;53.60;;;;;;5030214;28;20111;-85
2022/06/20 13:27:17;;;;;;;6.75;2.33;;;22.60;53.30;;;;;;5029761;28;20068;-86
2022/06/20 13:30:20;;;;;;;6.95;2.35;;;22.60;53.10;;;;;;5031671;28;20422;-86
2022/06/20 13:33:06;;;;;;;6.22;2.20;;;22.70;52.90;;;;;;5030385;28;20037;-84
2022/06/20 13:35:57;;;;;;;5.68;1.80;;;22.70;52.80;;;;;;5029626;28;20053;-84
2022/06/20 13:38:47;;;;;;;9.55;2.75;;;22.80;52.60;;;;;;5029877;28;20511;-86
2022/06/20 13:41:19;;;;;;;5.93;2.03;;;22.80;52.50;;;;;;5029731;28;20395;-84
2022/06/20 13:44:36;;;;;;;5.38;1.73;;;22.80;52.30;;;;;;5030086;28;20065;-85
2022/06/20 13:47:36;;;;;;;8.98;2.03;;;22.80;52.10;;;;;;5017899;28;20391;-85
2022/06/20 13:50:39;;;;;;;6.80;2.08;;;22.90;52.10;;;;;;5017826;28;20095;-85
2022/06/20 13:53:24;;;;;;;6.75;2.30;;;22.90;52.00;;;;;;5018635;28;20046;-85
2022/06/20 13:56:18;;;;;;;7.68;2.10;;;22.90;51.90;;;;;;5017217;28;20042;-85
2022/06/20 13:59:13;;;;;;;5.45;2.03;;;22.90;51.90;;;;;;5011213;28;20403;-85
2022/06/20 14:01:53;;;;;;;5.07;2.05;;;23.00;51.80;;;;;;5011423;28;20054;-85